Time;durP1;ratioP1;P1;durP2;ratioP2;P2;SDS_P1;SDS_P2;PMS_P1;PMS_P2;Temp;Humidity;BMP_temperature;BMP_pressure;BME280_temperature;BME280_humidity;BME280_pressure;Samples;Min_cycle;Max_cycle;Signal;HPM_P1;HPM_P2
2024/02/24 00:00:03;;;;;;;24.08;13.50;;;;;;;2.88;78.61;91168.50;2065623;69;20149;-75
2024/02/24 00:02:37;;;;;;;24.80;13.13;;;;;;;2.79;78.76;91167.28;2065064;69;20210;-74
2024/02/24 00:08:50;;;;;;;25.33;12.80;;;;;;;2.90;79.00;91165.88;2065617;69;20592;-74
2024/02/24 00:11:16;;;;;;;24.58;12.73;;;;;;;2.90;79.20;91170.69;2065533;69;20140;-73
2024/02/24 00:13:41;;;;;;;24.85;12.60;;;;;;;2.90;78.97;91181.81;2065332;69;20141;-74
2024/02/24 00:16:07;;;;;;;20.35;11.05;;;;;;;2.89;78.51;91172.03;2065672;69;20169;-74
2024/02/24 00:18:34;;;;;;;17.25;9.82;;;;;;;2.84;78.35;91184.94;2065324;69;20157;-74
2024/02/24 00:21:00;;;;;;;17.38;9.48;;;;;;;2.74;78.18;91178.72;2065733;69;20218;-73
2024/02/24 00:23:25;;;;;;;14.15;8.45;;;;;;;2.69;78.53;91180.50;2065525;69;20217;-73
2024/02/24 00:25:51;;;;;;;13.57;7.68;;;;;;;2.69;78.01;91180.50;2065335;69;20164;-75
2024/02/24 00:28:17;;;;;;;14.50;7.53;;;;;;;2.64;78.47;91184.34;2065520;69;20152;-74
2024/02/24 00:30:43;;;;;;;13.13;7.50;;;;;;;2.66;78.79;91189.34;2065262;69;20175;-74
2024/02/24 00:33:09;;;;;;;12.68;7.30;;;;;;;2.63;78.94;91187.72;2065385;69;20198;-74
2024/02/24 00:35:38;;;;;;;12.88;7.43;;;;;;;2.61;78.56;91193.91;2065690;69;20152;-74
2024/02/24 00:38:05;;;;;;;11.65;6.72;;;;;;;2.57;78.63;91201.97;2062255;69;20125;-73
2024/02/24 00:40:31;;;;;;;8.75;5.88;;;;;;;2.55;78.80;91194.22;2065648;69;20234;-76
2024/02/24 00:42:56;;;;;;;10.88;5.95;;;;;;;2.54;78.76;91192.75;2065088;69;20141;-76
2024/02/24 00:45:22;;;;;;;9.65;5.93;;;;;;;2.41;78.61;91190.50;2065609;69;20160;-74
2024/02/24 00:47:48;;;;;;;10.88;6.00;;;;;;;2.40;78.18;91191.84;2065352;69;20497;-73
2024/02/24 00:50:13;;;;;;;12.63;6.80;;;;;;;2.19;79.11;91189.75;2065456;69;20165;-75
2024/02/24 00:52:39;;;;;;;11.18;6.72;;;;;;;2.31;78.61;91198.19;2065572;69;20571;-76
2024/02/24 00:55:05;;;;;;;14.07;7.72;;;;;;;2.27;78.62;91190.31;2065341;69;20153;-76
2024/02/24 00:57:31;;;;;;;12.30;7.30;;;;;;;2.24;78.96;91193.53;2065075;69;20164;-74
2024/02/24 01:03:43;;;;;;;10.48;6.22;;;;;;;2.08;79.10;91198.03;2065619;69;20155;-74
2024/02/24 01:06:09;;;;;;;10.15;5.72;;;;;;;2.02;79.37;91193.53;2065715;69;20521;-74
2024/02/24 01:08:35;;;;;;;10.98;6.35;;;;;;;2.02;79.53;91206.69;2065614;69;20149;-74
2024/02/24 01:11:00;;;;;;;11.23;6.72;;;;;;;1.96;79.34;91204.19;2065323;69;20159;-75
2024/02/24 01:13:26;;;;;;;8.35;5.20;;;;;;;1.88;78.99;91200.91;2065480;69;20141;-75
2024/02/24 01:15:52;;;;;;;8.95;4.53;;;;;;;1.94;79.49;91200.56;2065468;69;20252;-75
2024/02/24 01:18:18;;;;;;;7.82;4.70;;;;;;;1.85;78.51;91202.06;2065426;69;20145;-74
2024/02/24 01:20:48;;;;;;;8.90;4.85;;;;;;;1.84;79.06;91208.94;2065415;69;20168;-74
2024/02/24 01:23:14;;;;;;;8.60;5.10;;;;;;;1.82;79.26;91216.38;2065430;69;20497;-75
2024/02/24 01:25:40;;;;;;;7.38;4.78;;;;;;;1.82;78.75;91213.63;2065479;69;20524;-75
2024/02/24 01:28:06;;;;;;;8.25;4.93;;;;;;;1.76;79.02;91216.72;2064887;69;20145;-76
2024/02/24 01:30:31;;;;;;;7.95;4.88;;;;;;;1.82;79.12;91221.94;2065554;69;20176;-77
2024/02/24 01:36:44;;;;;;;8.25;5.15;;;;;;;1.46;81.04;91229.19;2065403;69;20276;-75
2024/02/24 01:39:10;;;;;;;8.35;5.10;;;;;;;1.53;79.71;91220.00;2065660;69;20212;-76
2024/02/24 01:41:35;;;;;;;9.85;5.82;;;;;;;1.40;79.57;91203.84;2065474;69;20160;-75
2024/02/24 01:44:01;;;;;;;8.43;5.18;;;;;;;1.62;79.39;91221.28;2064859;69;20169;-76
2024/02/24 01:46:28;;;;;;;8.43;5.15;;;;;;;1.60;80.02;91221.13;2065212;69;20149;-76
2024/02/24 01:48:53;;;;;;;8.13;5.15;;;;;;;1.62;79.49;91219.25;2065222;69;20148;-75
2024/02/24 01:51:19;;;;;;;11.65;7.05;;;;;;;1.39;79.56;91227.34;2065395;69;20141;-74
2024/02/24 01:53:45;;;;;;;15.07;8.10;;;;;;;1.24;80.14;91225.63;2065302;69;20129;-75
2024/02/24 01:56:10;;;;;;;12.50;7.03;;;;;;;1.40;80.34;91223.97;2064868;69;20198;-75
2024/02/24 01:58:37;;;;;;;11.27;6.53;;;;;;;1.37;79.82;91222.34;2065467;69;20233;-76
2024/02/24 02:01:05;;;;;;;10.32;5.85;;;;;;;1.25;79.62;91225.03;2064797;69;20236;-77
2024/02/24 02:03:30;;;;;;;8.88;5.32;;;;;;;1.32;79.80;91239.31;2065233;69;20602;-75
2024/02/24 02:05:57;;;;;;;9.07;5.28;;;;;;;1.35;79.72;91236.09;2065329;69;20164;-76
2024/02/24 02:08:23;;;;;;;10.85;5.60;;;;;;;1.31;79.63;91238.56;2065262;69;20129;-77
2024/02/24 02:10:55;;;;;;;7.65;4.93;;;;;;;1.19;79.38;91237.72;2065332;69;20181;-76
2024/02/24 02:13:21;;;;;;;8.45;4.90;;;;;;;1.26;79.03;91234.78;2065401;69;20129;-76
2024/02/24 02:15:52;;;;;;;6.75;4.32;;;;;;;1.21;79.29;91232.34;2065592;69;20218;-75
2024/02/24 02:18:18;;;;;;;7.18;4.28;;;;;;;1.24;79.51;91231.88;2065175;69;20144;-77
2024/02/24 02:20:46;;;;;;;6.00;3.95;;;;;;;1.19;79.04;91232.16;2065323;69;20144;-76
2024/02/24 02:23:13;;;;;;;6.97;4.30;;;;;;;1.14;78.96;91233.94;2065288;69;20529;-74
2024/02/24 02:25:38;;;;;;;9.18;5.05;;;;;;;1.21;78.97;91229.56;2064963;69;20133;-75
2024/02/24 02:28:06;;;;;;;5.38;4.10;;;;;;;1.12;78.72;91239.34;2065130;69;20157;-75
2024/02/24 02:30:31;;;;;;;8.82;4.00;;;;;;;1.16;79.42;91247.22;2065275;69;20271;-75
2024/02/24 02:32:57;;;;;;;5.38;3.53;;;;;;;1.11;78.69;91248.25;2064467;69;20559;-76
2024/02/24 02:35:23;;;;;;;7.05;4.07;;;;;;;1.13;79.02;91248.38;2065094;69;20152;-76
2024/02/24 02:37:49;;;;;;;7.22;3.88;;;;;;;0.92;79.25;91226.81;2065182;69;20148;-76
2024/02/24 02:40:15;;;;;;;7.07;4.15;;;;;;;0.98;79.50;91241.09;2065214;69;20214;-76
2024/02/24 02:42:40;;;;;;;9.25;4.93;;;;;;;1.05;79.61;91258.88;2064988;69;20164;-74
2024/02/24 02:45:06;;;;;;;7.57;5.03;;;;;;;0.99;79.79;91250.88;2065180;69;20141;-74
2024/02/24 02:47:32;;;;;;;5.95;4.30;;;;;;;1.18;78.79;91267.47;2064477;69;20188;-76
2024/02/24 02:49:58;;;;;;;7.05;4.60;;;;;;;1.12;79.28;91271.88;2065140;69;20213;-76
2024/02/24 02:52:23;;;;;;;7.13;4.65;;;;;;;1.05;78.79;91265.16;2065150;69;20152;-75
2024/02/24 02:54:49;;;;;;;8.02;4.82;;;;;;;0.94;78.87;91260.22;2065294;69;20523;-75
2024/02/24 02:57:18;;;;;;;8.40;5.20;;;;;;;1.03;79.50;91259.47;2061916;69;20165;-76
2024/02/24 02:59:44;;;;;;;9.23;5.55;;;;;;;1.04;78.94;91254.66;2065250;69;20265;-76
2024/02/24 03:05:57;;;;;;;7.55;4.43;;;;;;;0.91;79.46;91239.94;2065399;69;20632;-76
2024/02/24 03:08:22;;;;;;;8.38;4.63;;;;;;;0.93;79.36;91245.63;2065355;69;20184;-76
2024/02/24 03:14:36;;;;;;;6.53;4.20;;;;;;;0.93;78.71;91258.75;2065310;69;20206;-75
2024/02/24 03:17:01;;;;;;;7.18;4.13;;;;;;;0.91;78.57;91253.78;2065101;69;20617;-75
2024/02/24 03:19:27;;;;;;;6.43;4.00;;;;;;;0.89;78.82;91250.88;2065079;69;20184;-75
2024/02/24 03:21:52;;;;;;;6.70;3.95;;;;;;;0.87;78.95;91261.06;2064714;69;20137;-74
2024/02/24 03:24:18;;;;;;;5.20;3.70;;;;;;;0.81;78.42;91255.09;2065409;69;20627;-76
2024/02/24 03:26:44;;;;;;;6.28;4.15;;;;;;;0.80;78.71;91270.28;2065089;69;20175;-75
2024/02/24 03:29:09;;;;;;;3.72;2.63;;;;;;;0.72;78.54;91260.06;2065166;69;20207;-74
2024/02/24 03:31:35;;;;;;;3.55;2.17;;;;;;;0.67;78.39;91265.88;2065118;69;20222;-75
2024/02/24 03:34:00;;;;;;;2.13;1.52;;;;;;;0.61;78.76;91266.16;2064924;69;20502;-76
2024/02/24 03:36:26;;;;;;;2.42;1.60;;;;;;;0.69;78.60;91263.28;2065223;69;20252;-75
2024/02/24 03:38:54;;;;;;;2.88;1.98;;;;;;;0.63;79.25;91266.31;2065125;69;20179;-75
2024/02/24 03:41:20;;;;;;;3.10;2.13;;;;;;;0.56;79.17;91261.66;2064537;69;20240;-75
2024/02/24 03:43:45;;;;;;;3.22;1.90;;;;;;;0.61;78.86;91254.38;2065160;69;20156;-74
2024/02/24 03:46:11;;;;;;;4.97;1.90;;;;;;;0.60;79.02;91264.72;2065005;69;20640;-74
2024/02/24 03:48:37;;;;;;;3.40;2.35;;;;;;;0.60;79.13;91264.00;2064634;69;20684;-73
2024/02/24 03:51:02;;;;;;;3.58;1.90;;;;;;;0.58;78.50;91272.88;2064888;69;20225;-75
2024/02/24 03:53:28;;;;;;;3.75;2.05;;;;;;;0.36;80.07;91277.47;2065127;69;20177;-75
2024/02/24 03:55:54;;;;;;;3.40;2.20;;;;;;;0.44;79.93;91280.84;2065178;69;20176;-75
2024/02/24 03:58:21;;;;;;;2.53;1.90;;;;;;;0.48;79.10;91272.84;2065392;69;20224;-74
2024/02/24 04:00:50;;;;;;;2.45;1.80;;;;;;;0.60;78.82;91280.59;2065141;69;20133;-73
2024/02/24 04:03:16;;;;;;;2.40;1.85;;;;;;;0.62;78.22;91289.06;2065104;69;20268;-75
2024/02/24 04:05:42;;;;;;;2.25;1.65;;;;;;;0.68;78.15;91273.59;2064579;69;20161;-75
2024/02/24 04:08:08;;;;;;;3.90;2.00;;;;;;;0.75;78.40;91278.28;2065043;69;20578;-74
2024/02/24 04:10:34;;;;;;;2.15;1.48;;;;;;;0.73;78.42;91283.69;2065226;69;20141;-75
2024/02/24 04:13:00;;;;;;;3.13;2.08;;;;;;;0.52;78.23;91283.50;2064638;69;20144;-76
2024/02/24 04:15:26;;;;;;;6.60;3.40;;;;;;;0.39;79.16;91292.22;2064596;69;20145;-74
2024/02/24 04:21:40;;;;;;;5.13;2.70;;;;;;;0.22;79.87;91288.22;2064608;69;20671;-75
2024/02/24 04:24:06;;;;;;;4.50;2.70;;;;;;;0.25;79.57;91294.66;2064748;69;20141;-74
2024/02/24 04:26:31;;;;;;;5.40;2.40;;;;;;;0.24;78.54;91302.22;2065075;69;20259;-74
2024/02/24 04:28:57;;;;;;;5.80;2.67;;;;;;;0.33;78.30;91305.63;2064922;69;20619;-75
2024/02/24 04:31:22;;;;;;;5.88;2.90;;;;;;;0.32;78.63;91293.06;2065261;69;20173;-74
2024/02/24 04:33:48;;;;;;;7.38;2.95;;;;;;;0.29;78.08;91305.31;2064989;69;20153;-76
2024/02/24 04:36:15;;;;;;;4.13;2.72;;;;;;;0.32;78.21;91312.44;2064592;69;20149;-76
2024/02/24 04:38:41;;;;;;;5.03;2.35;;;;;;;0.22;78.71;91293.75;2065186;69;20133;-74
2024/02/24 04:41:06;;;;;;;2.00;1.40;;;;;;;0.23;78.45;91306.31;2064284;69;20137;-74
2024/02/24 04:43:32;;;;;;;1.67;1.05;;;;;;;0.17;78.49;91303.06;2065124;69;20161;-74
2024/02/24 04:45:58;;;;;;;1.98;1.08;;;;;;;0.20;78.14;91307.47;2065393;69;20140;-75
2024/02/24 04:48:24;;;;;;;2.25;1.23;;;;;;;0.17;78.26;91305.84;2064834;69;20178;-74
2024/02/24 04:51:01;;;;;;;6.22;1.27;;;;;;;0.05;78.16;91310.47;2065704;69;20491;-75
2024/02/24 04:53:27;;;;;;;1.48;1.13;;;;;;;0.03;77.60;91310.31;2065445;69;20157;-74
2024/02/24 04:55:53;;;;;;;1.73;1.10;;;;;;;0.06;78.32;91314.69;2065463;69;20141;-74
2024/02/24 04:58:18;;;;;;;3.33;1.90;;;;;;;-0.01;78.20;91315.53;2065247;69;20152;-77
2024/02/24 05:00:45;;;;;;;4.22;2.58;;;;;;;-0.02;78.26;91312.03;2065460;69;20155;-75
2024/02/24 05:03:12;;;;;;;3.55;2.35;;;;;;;-0.04;77.77;91319.47;2064888;69;20653;-76
2024/02/24 05:05:37;;;;;;;3.15;1.95;;;;;;;-0.07;78.15;91328.91;2065540;69;20147;-75
2024/02/24 05:08:03;;;;;;;3.20;2.40;;;;;;;-0.07;78.07;91334.44;2065536;69;20524;-75
2024/02/24 05:10:29;;;;;;;3.05;1.70;;;;;;;-0.22;77.58;91329.84;2065015;69;20236;-75
2024/02/24 05:12:55;;;;;;;1.63;1.25;;;;;;;-0.23;77.51;91341.47;2065530;69;20152;-75
2024/02/24 05:15:21;;;;;;;1.73;1.00;;;;;;;-0.27;77.24;91347.44;2065528;69;20671;-75
2024/02/24 05:17:48;;;;;;;1.92;1.40;;;;;;;-0.42;78.69;91344.88;2065320;69;20145;-76
2024/02/24 05:20:14;;;;;;;1.38;1.13;;;;;;;-0.22;77.97;91354.75;2065428;69;20525;-75
2024/02/24 05:22:40;;;;;;;1.77;1.25;;;;;;;-0.35;77.75;91361.38;2065416;69;20141;-77
2024/02/24 05:25:07;;;;;;;3.03;1.70;;;;;;;-0.47;78.20;91345.84;2065453;69;20137;-76
2024/02/24 05:27:33;;;;;;;6.30;4.13;;;;;;;-0.54;79.12;91347.44;2065331;69;20148;-76
2024/02/24 05:29:58;;;;;;;14.35;9.52;;;;;;;-0.36;78.67;91346.09;2065484;69;20157;-78
2024/02/24 05:32:24;;;;;;;6.78;3.33;;;;;;;-0.34;78.35;91340.69;2064983;69;20168;-75
2024/02/24 05:34:50;;;;;;;2.80;2.17;;;;;;;-0.29;77.61;91344.50;2064856;69;20137;-75
2024/02/24 05:37:15;;;;;;;4.82;3.33;;;;;;;-0.39;77.63;91349.25;2065651;69;20620;-75
2024/02/24 05:39:41;;;;;;;1.40;1.10;;;;;;;-0.38;77.81;91345.91;2065584;69;20141;-77
2024/02/24 05:42:08;;;;;;;2.38;1.40;;;;;;;-0.30;78.01;91346.53;2065572;69;20175;-77
2024/02/24 05:44:33;;;;;;;1.58;1.00;;;;;;;-0.42;78.34;91340.06;2064949;69;20204;-79
2024/02/24 05:46:59;;;;;;;1.30;0.90;;;;;;;-0.41;78.79;91336.00;2065350;69;20593;-77
2024/02/24 05:49:25;;;;;;;2.25;1.00;;;;;;;-0.40;78.47;91326.41;2065280;69;20594;-77
2024/02/24 05:51:50;;;;;;;3.13;1.08;;;;;;;-0.34;78.72;91329.63;2065577;69;20136;-77
2024/02/24 05:54:16;;;;;;;1.00;0.90;;;;;;;-0.38;78.23;91340.38;2065665;69;20509;-76
2024/02/24 05:56:41;;;;;;;2.47;1.30;;;;;;;-0.33;77.87;91352.50;2064403;69;20266;-77
2024/02/24 05:59:07;;;;;;;2.05;1.60;;;;;;;-0.60;78.19;91366.28;2065282;69;20181;-77
2024/02/24 06:01:33;;;;;;;2.58;1.40;;;;;;;-0.41;77.94;91363.66;2065299;69;20159;-76
2024/02/24 06:04:00;;;;;;;3.00;1.10;;;;;;;-0.43;78.35;91362.75;2065231;69;20176;-79
2024/02/24 06:06:27;;;;;;;1.67;1.00;;;;;;;-0.37;77.62;91371.53;2065518;69;20136;-78
2024/02/24 06:12:40;;;;;;;1.30;0.82;;;;;;;-0.44;78.11;91375.13;2065387;69;20568;-75
2024/02/24 06:15:06;;;;;;;1.60;1.20;;;;;;;-0.40;77.88;91361.63;2065396;69;20158;-77
2024/02/24 06:17:32;;;;;;;1.60;1.20;;;;;;;-0.37;77.18;91369.50;2065365;69;20172;-76
2024/02/24 06:19:57;;;;;;;5.05;1.80;;;;;;;-0.29;76.75;91361.09;2065168;69;20164;-76
2024/02/24 06:22:23;;;;;;;3.50;1.35;;;;;;;-0.32;76.74;91363.00;2065338;69;20160;-78
2024/02/24 06:24:49;;;;;;;1.30;1.10;;;;;;;-0.56;76.76;91328.63;2065281;69;20164;-77
2024/02/24 06:27:15;;;;;;;2.25;1.35;;;;;;;-0.34;77.12;91351.03;2064843;69;20149;-76
2024/02/24 06:29:41;;;;;;;2.05;1.10;;;;;;;-0.42;77.38;91353.16;2065202;69;20155;-76
2024/02/24 06:32:07;;;;;;;4.90;1.77;;;;;;;-0.47;77.41;91367.97;2065338;69;20222;-76
2024/02/24 06:34:33;;;;;;;2.85;1.30;;;;;;;-0.37;77.13;91366.00;2065205;69;20160;-77
2024/02/24 06:36:58;;;;;;;1.02;0.85;;;;;;;-0.38;76.80;91379.09;2065293;69;20156;-78
2024/02/24 06:39:24;;;;;;;2.25;0.80;;;;;;;-0.31;77.04;91397.63;2065261;69;20619;-76
2024/02/24 06:41:49;;;;;;;2.05;1.00;;;;;;;-0.27;77.10;91386.91;2064163;69;20344;-76
2024/02/24 06:44:15;;;;;;;1.80;1.00;;;;;;;-0.26;76.81;91398.69;2065242;69;20129;-77
2024/02/24 06:46:40;;;;;;;1.75;0.80;;;;;;;-0.27;76.96;91411.06;2065328;69;20152;-76
2024/02/24 06:49:06;;;;;;;1.65;1.00;;;;;;;-0.36;77.36;91422.78;2065229;69;20149;-77
2024/02/24 06:51:32;;;;;;;1.58;1.00;;;;;;;-0.42;77.22;91417.47;2065290;69;20591;-76
2024/02/24 06:53:57;;;;;;;1.23;0.70;;;;;;;-0.43;77.11;91420.81;2065307;69;20141;-76
2024/02/24 06:56:23;;;;;;;3.55;1.98;;;;;;;-0.61;77.84;91426.34;2064658;69;20179;-76
2024/02/24 06:58:48;;;;;;;3.03;2.00;;;;;;;-0.48;76.95;91417.00;2065488;69;20129;-76
2024/02/24 07:01:21;;;;;;;1.65;1.20;;;;;;;-0.37;77.10;91415.78;2065276;69;20193;-76
2024/02/24 07:03:47;;;;;;;1.38;0.93;;;;;;;-0.34;77.00;91425.69;2064961;69;20161;-76
2024/02/24 07:06:12;;;;;;;1.52;1.10;;;;;;;-0.37;77.04;91421.28;2065571;69;20525;-76
2024/02/24 07:08:38;;;;;;;1.48;1.10;;;;;;;-0.33;77.27;91436.19;2064998;69;20141;-76
2024/02/24 07:11:03;;;;;;;3.33;1.20;;;;;;;-0.27;77.34;91444.97;2065385;69;20178;-76
2024/02/24 07:13:29;;;;;;;1.17;0.98;;;;;;;-0.28;77.38;91437.22;2065352;69;20185;-76
2024/02/24 07:15:54;;;;;;;3.45;1.90;;;;;;;-0.21;77.21;91453.00;2065385;69;20141;-77
2024/02/24 07:18:20;;;;;;;2.78;1.60;;;;;;;-0.08;76.53;91454.72;2065278;69;20224;-76
2024/02/24 07:20:47;;;;;;;2.00;1.10;;;;;;;-0.12;76.57;91455.13;2065227;69;20554;-78
2024/02/24 07:23:12;;;;;;;1.85;1.30;;;;;;;-0.11;76.91;91481.47;2065221;69;20581;-78
2024/02/24 07:25:38;;;;;;;8.02;3.65;;;;;;;0.07;76.67;91492.50;2065532;69;20145;-77
2024/02/24 07:28:05;;;;;;;6.82;3.90;;;;;;;-0.13;76.65;91491.66;2065003;69;20648;-76
2024/02/24 07:30:30;;;;;;;5.38;3.10;;;;;;;-0.49;78.23;91478.41;2065144;69;20628;-75
2024/02/24 07:32:56;;;;;;;6.55;3.97;;;;;;;-0.52;78.33;91475.47;2065114;69;20141;-74
2024/02/24 07:35:21;;;;;;;16.05;8.70;;;;;;;-0.23;78.82;91505.38;2065244;69;20301;-75
2024/02/24 07:37:48;;;;;;;11.35;6.65;;;;;;;-0.08;78.46;91518.34;2065061;69;20286;-74
2024/02/24 07:40:14;;;;;;;11.18;6.72;;;;;;;0.14;77.30;91513.84;2065139;69;20155;-75
2024/02/24 07:42:39;;;;;;;9.80;5.57;;;;;;;0.47;76.85;91511.56;2065231;69;20153;-76
2024/02/24 07:45:06;;;;;;;7.22;4.60;;;;;;;0.61;76.61;91501.56;2064534;69;20141;-75
2024/02/24 07:47:32;;;;;;;6.07;3.92;;;;;;;0.58;76.63;91502.00;2065120;69;20384;-75
2024/02/24 07:49:59;;;;;;;52.35;16.35;;;;;;;0.45;76.44;91497.53;2064981;69;20601;-76
2024/02/24 07:52:24;;;;;;;11.45;5.20;;;;;;;0.39;76.71;91500.59;2065072;69;20145;-76
2024/02/24 07:54:50;;;;;;;15.13;6.03;;;;;;;0.83;75.55;91501.84;2064983;69;20149;-75
2024/02/24 07:57:15;;;;;;;17.48;5.88;;;;;;;0.90;75.54;91493.38;2065153;69;20232;-75
2024/02/24 07:59:41;;;;;;;6.80;3.28;;;;;;;1.10;75.13;91510.81;2065111;69;20234;-74
2024/02/24 08:02:06;;;;;;;4.18;2.22;;;;;;;1.19;74.69;91510.13;2065124;69;20157;-75
2024/02/24 08:04:32;;;;;;;8.18;3.92;;;;;;;0.49;75.10;91512.44;2064952;69;20180;-75
2024/02/24 08:06:58;;;;;;;9.75;4.95;;;;;;;0.25;74.99;91513.31;2064860;69;20156;-76
2024/02/24 08:09:23;;;;;;;11.15;4.68;;;;;;;0.53;75.40;91511.28;2064881;69;20169;-76
2024/02/24 08:11:49;;;;;;;9.35;3.97;;;;;;;0.36;74.99;91509.28;2064942;69;20133;-75
2024/02/24 08:18:03;;;;;;;4.20;2.50;;;;;;;0.87;72.69;91518.72;2064801;69;20180;-75
2024/02/24 08:20:29;;;;;;;4.68;2.50;;;;;;;1.01;72.31;91503.94;2065122;69;20153;-75
2024/02/24 08:22:56;;;;;;;7.32;2.72;;;;;;;1.22;73.06;91514.50;2065212;69;20215;-75
2024/02/24 08:25:21;;;;;;;5.57;2.58;;;;;;;1.07;73.20;91522.34;2065166;69;20160;-75
2024/02/24 08:27:48;;;;;;;4.55;2.35;;;;;;;1.05;73.33;91536.75;2064961;69;20161;-76
2024/02/24 08:30:14;;;;;;;3.65;2.40;;;;;;;1.40;72.37;91539.34;2065523;69;20129;-75
2024/02/24 08:32:45;;;;;;;4.65;2.38;;;;;;;1.69;72.45;91534.59;2065539;69;20273;-77
2024/02/24 08:35:11;;;;;;;4.30;2.40;;;;;;;2.23;74.23;91533.59;2065441;69;20531;-76
2024/02/24 08:37:37;;;;;;;6.18;3.13;;;;;;;2.54;74.66;91537.25;2065208;69;20573;-75
2024/02/24 08:40:04;;;;;;;7.72;3.85;;;;;;;2.44;73.88;91542.09;2064960;69;20153;-75
2024/02/24 08:42:30;;;;;;;6.05;3.67;;;;;;;3.36;73.72;91544.91;2064922;69;20156;-76
2024/02/24 08:44:56;;;;;;;7.93;3.80;;;;;;;3.79;71.76;91548.50;2064944;69;20129;-76
2024/02/24 08:47:22;;;;;;;8.27;4.13;;;;;;;4.15;70.27;91561.31;2065441;69;20312;-76
2024/02/24 08:49:47;;;;;;;10.50;4.68;;;;;;;4.34;68.03;91552.81;2064746;69;20139;-77
2024/02/24 08:52:13;;;;;;;7.10;4.53;;;;;;;4.78;65.73;91554.19;2065500;69;20147;-77
2024/02/24 08:54:40;;;;;;;8.57;4.65;;;;;;;5.11;64.39;91553.44;2064957;69;20232;-76
2024/02/24 08:57:07;;;;;;;8.68;4.55;;;;;;;5.76;63.55;91548.25;2065258;69;20502;-76
2024/02/24 08:59:33;;;;;;;7.22;4.72;;;;;;;6.22;63.32;91558.69;2065477;69;20262;-77
2024/02/24 09:01:59;;;;;;;7.15;4.40;;;;;;;6.22;64.22;91555.88;2065449;69;20141;-77
2024/02/24 09:04:25;;;;;;;8.18;3.85;;;;;;;6.40;62.15;91552.69;2064629;69;20156;-77
2024/02/24 09:06:52;;;;;;;7.53;4.70;;;;;;;6.53;60.86;91549.25;2065320;69;20145;-77
2024/02/24 09:09:18;;;;;;;8.82;5.55;;;;;;;6.93;60.95;91559.19;2065465;69;20587;-77
2024/02/24 09:11:46;;;;;;;9.63;5.18;;;;;;;6.27;60.59;91562.44;2065518;69;20600;-77
2024/02/24 09:14:12;;;;;;;6.03;4.45;;;;;;;6.76;61.92;91557.56;2065426;69;20145;-78
2024/02/24 09:16:38;;;;;;;5.80;3.75;;;;;;;7.49;60.52;91560.09;2064999;69;20604;-78
2024/02/24 09:19:03;;;;;;;5.60;3.15;;;;;;;8.01;59.76;91564.94;2065256;69;20153;-76
2024/02/24 09:21:30;;;;;;;4.35;3.03;;;;;;;8.20;57.39;91565.88;2065404;69;20214;-75
2024/02/24 09:23:56;;;;;;;6.57;3.97;;;;;;;8.24;56.78;91558.38;2065455;69;20211;-76
2024/02/24 09:26:22;;;;;;;6.80;3.80;;;;;;;9.02;56.38;91554.53;2065409;69;20609;-76
2024/02/24 09:28:47;;;;;;;6.18;2.70;;;;;;;8.50;54.12;91561.84;2065223;69;20226;-76
2024/02/24 09:31:13;;;;;;;2.83;2.08;;;;;;;7.93;51.80;91558.94;2065263;69;20141;-76
2024/02/24 09:33:39;;;;;;;3.10;1.50;;;;;;;8.82;53.97;91557.09;2065210;69;20148;-76
2024/02/24 09:36:04;;;;;;;3.95;1.38;;;;;;;8.86;51.92;91551.69;2065425;69;20149;-76
2024/02/24 09:38:30;;;;;;;2.35;1.40;;;;;;;8.27;52.92;91545.22;2065447;69;20157;-76
2024/02/24 09:40:56;;;;;;;2.47;1.55;;;;;;;8.91;51.62;91558.22;2065106;69;20149;-76
2024/02/24 09:43:22;;;;;;;1.95;1.60;;;;;;;9.21;52.31;91547.72;2065324;69;20153;-76
2024/02/24 09:45:48;;;;;;;1.55;1.20;;;;;;;9.10;50.65;91557.00;2065351;69;20159;-76
2024/02/24 09:48:15;;;;;;;1.65;1.27;;;;;;;9.46;50.54;91562.91;2065295;69;20233;-75
2024/02/24 09:50:41;;;;;;;1.63;1.48;;;;;;;9.34;49.66;91560.97;2065401;69;20151;-75
2024/02/24 09:53:07;;;;;;;2.10;1.67;;;;;;;8.84;49.04;91576.09;2061990;69;20519;-76
2024/02/24 09:55:33;;;;;;;4.32;3.15;;;;;;;7.67;55.95;91585.56;2065549;69;20275;-76
2024/02/24 09:58:01;;;;;;;6.75;3.17;;;;;;;8.20;55.55;91593.91;2065083;69;20143;-76
2024/02/24 10:00:27;;;;;;;4.60;2.50;;;;;;;9.56;53.01;91585.84;2065434;69;20168;-77
2024/02/24 10:02:53;;;;;;;2.25;1.42;;;;;;;9.97;51.28;91596.13;2065301;69;20609;-77
2024/02/24 10:05:19;;;;;;;1.58;1.38;;;;;;;9.54;49.89;91578.03;2065397;69;20157;-75
2024/02/24 10:07:46;;;;;;;4.50;2.40;;;;;;;10.05;49.20;91588.78;2065390;69;20145;-75
2024/02/24 10:10:14;;;;;;;2.58;1.90;;;;;;;9.99;48.63;91585.72;2065467;69;20160;-76
2024/02/24 10:12:54;;;;;;;5.65;3.42;;;;;;;10.41;49.01;91572.09;2065373;69;20160;-76
2024/02/24 10:15:20;;;;;;;12.50;6.32;;;;;;;9.86;50.36;91564.03;2065468;69;20148;-76
2024/02/24 10:17:45;;;;;;;3.47;1.90;;;;;;;10.14;49.35;91559.66;2065283;69;20149;-76
2024/02/24 10:20:11;;;;;;;2.45;1.80;;;;;;;9.27;48.30;91566.94;2065459;69;20149;-76
2024/02/24 10:22:38;;;;;;;3.28;1.45;;;;;;;10.95;49.32;91570.16;2065617;69;20222;-77
2024/02/24 10:25:05;;;;;;;1.83;1.40;;;;;;;11.60;48.05;91549.47;2065404;69;20156;-77
2024/02/24 10:27:30;;;;;;;2.28;1.55;;;;;;;11.62;46.82;91569.25;2065254;69;20137;-77
2024/02/24 10:29:57;;;;;;;2.40;1.50;;;;;;;10.92;47.28;91568.59;2065369;69;20214;-77
2024/02/24 10:32:23;;;;;;;2.30;1.60;;;;;;;11.38;47.39;91564.13;2064994;69;20252;-78
2024/02/24 10:34:50;;;;;;;2.42;1.50;;;;;;;11.40;48.04;91569.81;2065190;69;20244;-77
2024/02/24 10:37:16;;;;;;;2.40;1.52;;;;;;;12.65;47.12;91568.84;2065197;69;20157;-78
2024/02/24 10:39:43;;;;;;;2.40;1.60;;;;;;;12.13;46.07;91560.63;2065382;69;20656;-77
2024/02/24 10:42:10;;;;;;;1.98;1.25;;;;;;;12.40;46.96;91575.72;2064887;69;20184;-77
2024/02/24 10:44:37;;;;;;;4.53;1.23;;;;;;;11.87;44.51;91582.25;2065319;69;20210;-77
2024/02/24 10:47:03;;;;;;;2.13;1.20;;;;;;;14.30;43.77;91559.25;2065308;69;20161;-77
2024/02/24 10:49:29;;;;;;;2.67;1.10;;;;;;;12.38;43.96;91584.84;2064741;69;20152;-77
2024/02/24 10:51:56;;;;;;;2.55;1.20;;;;;;;12.93;44.56;91583.94;2065443;69;20168;-77
2024/02/24 10:54:30;;;;;;;1.50;1.00;;;;;;;11.26;46.09;91591.81;2065394;69;20153;-77
2024/02/24 10:56:59;;;;;;;0.95;0.80;;;;;;;14.40;40.36;91591.41;2065379;69;20509;-78
2024/02/24 10:59:29;;;;;;;1.48;0.88;;;;;;;13.75;39.68;91585.91;2065381;69;20600;-78
2024/02/24 11:02:02;;;;;;;2.60;1.10;;;;;;;15.21;40.17;91587.28;2065353;69;20159;-77
2024/02/24 11:04:37;;;;;;;1.90;1.10;;;;;;;16.24;37.79;91593.31;2065344;69;20256;-77
2024/02/24 11:07:05;;;;;;;;;;;;;;;12.22;40.42;91592.69;2065516;69;20222;-77
2024/02/24 11:09:38;;;;;;;1.40;0.85;;;;;;;16.80;38.35;91595.94;2065413;69;20118;-77
2024/02/24 11:12:07;;;;;;;1.05;0.75;;;;;;;17.48;36.34;91592.22;2065459;69;20522;-77
2024/02/24 11:14:34;;;;;;;3.80;2.00;;;;;;;16.37;38.17;91594.28;2065396;69;20417;-78
2024/02/24 11:17:03;;;;;;;1.20;0.90;;;;;;;19.17;33.43;91594.03;2065340;69;20228;-78
2024/02/24 11:19:47;;;;;;;1.42;1.15;;;;;;;20.72;33.98;91589.69;2065315;69;20145;-78
2024/02/24 11:22:21;;;;;;;0.98;0.73;;;;;;;17.04;32.84;91584.31;2065296;69;20215;-78
2024/02/24 11:25:05;;;;;;;1.00;0.70;;;;;;;17.32;36.19;91584.16;2065258;69;20217;-78
2024/02/24 11:27:34;;;;;;;1.63;1.33;;;;;;;19.11;35.08;91571.16;2064592;69;20167;-77
2024/02/24 11:30:35;;;;;;;1.83;1.20;;;;;;;19.14;34.35;91573.31;2065288;69;20179;-77
2024/02/24 11:33:20;;;;;;;0.85;0.85;;;;;;;21.32;30.35;91582.81;2065080;69;20137;-76
2024/02/24 11:35:47;;;;;;;0.95;0.80;;;;;;;18.60;33.54;91579.03;2065329;69;20589;-78
2024/02/24 11:38:15;;;;;;;1.00;0.90;;;;;;;21.51;31.17;91586.44;2065262;69;20171;-77
2024/02/24 11:40:44;;;;;;;1.45;0.82;;;;;;;21.80;30.57;91587.22;2061938;69;20163;-78
2024/02/24 11:43:11;;;;;;;2.50;0.77;;;;;;;23.99;29.53;91593.22;2065291;69;20230;-77
2024/02/24 11:45:37;;;;;;;1.08;0.80;;;;;;;26.13;26.95;91585.25;2065355;69;20156;-77
2024/02/24 11:48:02;;;;;;;0.85;0.75;;;;;;;25.52;27.30;91588.94;2064554;69;20533;-77
2024/02/24 11:50:28;;;;;;;0.70;0.68;;;;;;;25.69;27.16;91580.78;2064691;69;20207;-78
2024/02/24 11:52:54;;;;;;;1.83;0.75;;;;;;;20.28;30.86;91580.06;2065197;69;20137;-78
2024/02/24 11:55:19;;;;;;;0.75;0.73;;;;;;;17.98;33.11;91581.00;2065813;69;20228;-77
2024/02/24 11:57:45;;;;;;;1.52;0.80;;;;;;;23.69;29.47;91582.63;2066474;69;20137;-78
2024/02/24 12:00:11;;;;;;;2.45;1.05;;;;;;;24.44;29.03;91584.28;2066436;69;20148;-77
2024/02/24 12:02:37;;;;;;;2.13;1.10;;;;;;;25.57;27.38;91575.91;2066204;69;20153;-78